createdAt,value
2023-04-18T00:01:22.703Z,4.75
2023-04-18T00:03:55.977Z,4.22
2023-04-18T00:06:31.242Z,5.10
2023-04-18T00:09:04.782Z,4.35
2023-04-18T00:11:37.978Z,4.93
2023-04-18T00:14:12.056Z,4.80
2023-04-18T00:16:46.336Z,4.38
2023-04-18T00:19:20.171Z,4.38
2023-04-18T00:24:27.745Z,4.28
2023-04-18T00:27:01.618Z,4.45
2023-04-18T00:29:34.726Z,4.00
2023-04-18T00:32:08.057Z,5.07
2023-04-18T00:34:41.438Z,5.07
2023-04-18T00:37:15.978Z,5.15
2023-04-18T00:39:49.393Z,5.20
2023-04-18T00:42:22.655Z,4.88
2023-04-18T00:44:56.004Z,4.53
2023-04-18T00:47:29.216Z,5.55
2023-04-18T00:50:02.562Z,4.85
2023-04-18T00:52:37.738Z,4.93
2023-04-18T00:55:11.809Z,5.22
2023-04-18T00:57:45.020Z,4.93
2023-04-18T01:00:18.495Z,4.72
2023-04-18T01:02:53.292Z,4.68
2023-04-18T01:05:27.868Z,4.43
2023-04-18T01:08:02.866Z,5.43
2023-04-18T01:10:37.214Z,4.85
2023-04-18T01:13:14.603Z,5.13
2023-04-18T01:15:49.694Z,5.43
2023-04-18T01:18:23.038Z,4.95
2023-04-18T01:20:57.075Z,4.90
2023-04-18T01:23:31.941Z,5.07
2023-04-18T01:26:06.937Z,5.28
2023-04-18T01:28:40.089Z,5.45
2023-04-18T01:31:14.323Z,5.10
2023-04-18T01:33:47.493Z,5.32
2023-04-18T01:36:22.435Z,4.88
2023-04-18T01:38:55.644Z,5.13
2023-04-18T01:41:32.715Z,5.78
2023-04-18T01:44:06.467Z,5.55
2023-04-18T01:46:40.826Z,5.18
2023-04-18T01:49:14.017Z,4.85
2023-04-18T01:51:48.428Z,4.68
2023-04-18T01:54:21.722Z,5.30
2023-04-18T01:56:56.221Z,5.80
2023-04-18T01:59:29.409Z,5.30
2023-04-18T02:02:02.624Z,4.93
2023-04-18T02:04:35.851Z,5.15
2023-04-18T02:07:09.075Z,4.97
2023-04-18T02:09:42.339Z,5.38
2023-04-18T02:12:18.935Z,5.05
2023-04-18T02:14:53.627Z,5.40
2023-04-18T02:17:27.015Z,5.47
2023-04-18T02:20:00.957Z,6.15
2023-04-18T02:22:34.129Z,5.55
2023-04-18T02:25:08.984Z,5.72
2023-04-18T02:27:43.552Z,5.00
2023-04-18T02:30:17.010Z,4.95
2023-04-18T02:32:53.033Z,5.03
2023-04-18T02:35:30.910Z,5.55
2023-04-18T02:38:04.070Z,5.43
2023-04-18T02:40:37.401Z,5.30
2023-04-18T02:43:11.876Z,5.00
2023-04-18T02:45:45.066Z,5.43
2023-04-18T02:48:18.315Z,5.22
2023-04-18T02:50:52.093Z,4.97
2023-04-18T02:53:25.275Z,5.45
2023-04-18T02:56:01.778Z,6.05
2023-04-18T02:58:54.241Z,5.50
2023-04-18T03:01:57.519Z,5.05
2023-04-18T03:04:30.834Z,5.10
2023-04-18T03:07:09.320Z,5.10
2023-04-18T03:09:45.363Z,5.68
2023-04-18T03:12:25.709Z,5.30
2023-04-18T03:15:00.249Z,4.68
2023-04-18T03:17:34.289Z,4.85
2023-04-18T03:20:08.704Z,4.93
2023-04-18T03:22:41.833Z,5.43
2023-04-18T03:25:15.137Z,5.32
2023-04-18T03:27:52.622Z,5.30
2023-04-18T03:30:29.437Z,5.43
2023-04-18T03:33:05.213Z,5.60
2023-04-18T03:35:39.013Z,5.22
2023-04-18T03:38:12.214Z,5.30
2023-04-18T03:40:46.412Z,5.95
2023-04-18T03:43:27.778Z,5.40
2023-04-18T03:46:02.401Z,5.15
2023-04-18T03:48:37.268Z,5.70
2023-04-18T03:51:15.219Z,5.47
2023-04-18T03:53:48.450Z,5.47
2023-04-18T03:56:23.342Z,5.32
2023-04-18T03:58:58.754Z,5.68
2023-04-18T04:01:33.425Z,5.53
2023-04-18T04:04:06.922Z,4.78
2023-04-18T04:06:41.167Z,5.38
2023-04-18T04:09:14.453Z,5.47
2023-04-18T04:11:47.770Z,5.15
2023-04-18T04:14:22.888Z,5.28
2023-04-18T04:16:57.508Z,6.00
2023-04-18T04:19:31.048Z,5.28
2023-04-18T04:22:13.964Z,5.50
2023-04-18T04:24:48.368Z,5.45
2023-04-18T04:27:26.907Z,5.15
2023-04-18T04:30:02.565Z,5.18
2023-04-18T04:32:38.899Z,5.50
2023-04-18T04:35:12.359Z,5.90
2023-04-18T04:37:45.862Z,5.82
2023-04-18T04:40:31.255Z,5.70
2023-04-18T04:43:12.660Z,5.35
2023-04-18T04:45:51.593Z,5.43
2023-04-18T04:48:30.262Z,5.35
2023-04-18T04:51:03.480Z,4.93
2023-04-18T04:53:36.775Z,5.68
2023-04-18T04:56:10.609Z,4.63
2023-04-18T04:58:45.841Z,5.35
2023-04-18T05:01:23.889Z,5.88
2023-04-18T05:03:58.677Z,5.85
2023-04-18T05:06:32.096Z,6.50
2023-04-18T05:09:05.368Z,5.68
2023-04-18T05:11:38.758Z,5.68
2023-04-18T05:14:12.733Z,5.43
2023-04-18T05:16:46.504Z,5.75
2023-04-18T05:19:21.174Z,5.72
2023-04-18T05:21:54.358Z,5.32
2023-04-18T05:24:27.742Z,6.32
2023-04-18T05:27:01.657Z,5.53
2023-04-18T05:29:34.901Z,4.90
2023-04-18T05:32:08.350Z,6.07
2023-04-18T05:34:46.954Z,6.10
2023-04-18T05:37:20.218Z,6.30
2023-04-18T05:39:53.466Z,6.95
2023-04-18T05:42:26.692Z,7.10
2023-04-18T05:44:59.944Z,6.80
2023-04-18T05:47:33.747Z,7.38
2023-04-18T05:50:10.060Z,7.35
2023-04-18T05:52:43.237Z,7.93
2023-04-18T05:55:16.441Z,7.82
2023-04-18T05:57:49.689Z,7.55
2023-04-18T06:00:23.117Z,8.23
2023-04-18T06:02:56.596Z,8.70
2023-04-18T06:05:31.614Z,8.07
2023-04-18T06:08:05.212Z,8.25
2023-04-18T06:10:39.197Z,9.38
2023-04-18T06:13:12.602Z,8.43
2023-04-18T06:15:45.826Z,9.38
2023-04-18T06:18:19.062Z,8.85
2023-04-18T06:20:54.237Z,8.93
2023-04-18T06:23:27.368Z,8.65
2023-04-18T06:26:00.665Z,7.57
2023-04-18T06:28:33.832Z,9.65
2023-04-18T06:31:08.493Z,8.35
2023-04-18T06:33:41.685Z,8.82
2023-04-18T06:36:16.294Z,9.48
2023-04-18T06:38:49.587Z,9.15
2023-04-18T06:41:22.766Z,9.57
2023-04-18T06:44:03.360Z,10.13
2023-04-18T06:46:37.128Z,8.93
2023-04-18T06:49:10.788Z,9.18
2023-04-18T06:51:45.267Z,9.40
2023-04-18T06:54:18.410Z,8.60
2023-04-18T06:56:51.632Z,10.00
2023-04-18T06:59:24.791Z,7.82
2023-04-18T07:01:58.184Z,9.48
2023-04-18T07:04:31.424Z,10.50
2023-04-18T07:07:06.047Z,9.65
2023-04-18T07:09:39.217Z,9.25
2023-04-18T07:12:12.409Z,8.95
2023-04-18T07:14:45.629Z,8.43
2023-04-18T07:17:18.994Z,9.32
2023-04-18T07:19:52.227Z,9.13
2023-04-18T07:22:27.077Z,9.95
2023-04-18T07:25:00.397Z,8.63
2023-04-18T07:27:35.502Z,9.07
2023-04-18T07:30:09.893Z,9.52
2023-04-18T07:32:43.134Z,9.38
2023-04-18T07:35:16.577Z,9.02
2023-04-18T07:37:51.099Z,9.57
2023-04-18T07:40:24.330Z,9.40
2023-04-18T07:42:57.666Z,8.77
2023-04-18T07:45:30.870Z,9.25
2023-04-18T07:48:04.288Z,8.68
2023-04-18T07:50:37.665Z,9.65
2023-04-18T07:53:12.202Z,8.70
2023-04-18T07:55:45.695Z,7.97
2023-04-18T07:58:18.997Z,8.20
2023-04-18T08:00:52.185Z,14.45
2023-04-18T08:03:25.504Z,15.80
2023-04-18T08:05:58.832Z,14.85
2023-04-18T08:08:33.498Z,14.70
2023-04-18T08:11:06.897Z,13.05
2023-04-18T08:13:40.168Z,11.80
2023-04-18T08:16:15.567Z,11.65
2023-04-18T08:18:50.552Z,11.00
2023-04-18T08:21:23.721Z,11.80
2023-04-18T08:23:58.211Z,11.05
2023-04-18T08:26:31.381Z,11.25
2023-04-18T08:29:04.633Z,11.23
2023-04-18T08:31:37.964Z,11.13
2023-04-18T08:34:11.219Z,10.90
2023-04-18T08:36:44.379Z,48.70
2023-04-18T08:39:18.964Z,60.20
2023-04-18T08:41:58.974Z,72.97
2023-04-18T08:44:32.825Z,97.03
2023-04-18T08:47:08.867Z,155.20
2023-04-18T08:49:42.552Z,144.18
2023-04-18T08:52:17.811Z,136.20
2023-04-18T08:54:52.445Z,125.05
2023-04-18T08:57:27.613Z,110.60
2023-04-18T09:00:01.961Z,108.00
2023-04-18T09:02:42.100Z,103.85
2023-04-18T09:05:16.619Z,95.97
2023-04-18T09:07:51.481Z,93.20
2023-04-18T09:10:32.922Z,83.22
2023-04-18T09:13:07.904Z,77.25
2023-04-18T09:15:41.569Z,78.10
2023-04-18T09:18:16.251Z,78.75
2023-04-18T09:20:50.025Z,74.00
2023-04-18T09:23:28.077Z,79.82
2023-04-18T09:26:02.970Z,75.93
2023-04-18T09:28:37.606Z,70.13
2023-04-18T09:31:13.410Z,68.05
2023-04-18T09:33:54.436Z,75.63
2023-04-18T09:36:28.436Z,68.88
2023-04-18T09:39:02.073Z,70.40
2023-04-18T09:41:36.692Z,67.38
2023-04-18T09:44:14.913Z,65.32
2023-04-18T09:46:49.452Z,62.38
2023-04-18T09:49:23.259Z,60.67
2023-04-18T09:54:33.966Z,60.63
2023-04-18T09:57:11.954Z,56.92
2023-04-18T09:59:51.649Z,55.97
2023-04-18T10:02:27.332Z,55.40
2023-04-18T10:05:01.234Z,53.75
2023-04-18T10:10:08.812Z,51.03
2023-04-18T10:12:43.797Z,46.92
2023-04-18T10:15:18.728Z,48.33
2023-04-18T10:20:35.766Z,47.08
2023-04-18T10:23:37.037Z,48.70
2023-04-18T10:26:10.804Z,47.15
2023-04-18T10:31:30.810Z,45.72
2023-04-18T10:34:08.276Z,43.75
2023-04-18T10:37:04.723Z,45.45
2023-04-18T10:39:50.494Z,43.88
2023-04-18T10:42:59.391Z,44.45
2023-04-18T10:45:36.536Z,39.22
2023-04-18T10:48:30.005Z,41.28
2023-04-18T10:51:17.121Z,40.73
2023-04-18T10:53:53.717Z,39.03
2023-04-18T10:56:28.200Z,40.83
2023-04-18T10:59:03.996Z,38.92
2023-04-18T11:01:39.155Z,37.35
2023-04-18T11:04:14.691Z,38.03
2023-04-18T11:06:50.197Z,36.75
2023-04-18T11:09:25.304Z,33.60
2023-04-18T11:12:06.685Z,36.25
2023-04-18T11:14:42.919Z,34.20
2023-04-18T11:17:23.512Z,33.97
2023-04-18T11:20:08.920Z,34.63
2023-04-18T11:22:47.143Z,31.98
2023-04-18T11:25:24.535Z,32.42
2023-04-18T11:28:00.627Z,31.20
2023-04-18T11:30:38.553Z,28.65
2023-04-18T11:33:14.896Z,16.60
2023-04-18T11:35:48.523Z,16.13
2023-04-18T11:38:24.235Z,15.80
2023-04-18T11:40:57.864Z,14.05
2023-04-18T11:43:31.010Z,14.77
2023-04-18T11:46:04.240Z,14.75
2023-04-18T11:48:40.334Z,13.98
2023-04-18T11:51:36.929Z,13.68
2023-04-18T11:54:38.069Z,13.98
2023-04-18T11:57:22.050Z,13.85
2023-04-18T11:59:57.457Z,13.45
2023-04-18T12:02:42.656Z,14.68
2023-04-18T12:05:27.861Z,12.70
2023-04-18T12:08:07.995Z,13.13
2023-04-18T12:10:47.587Z,11.25
2023-04-18T12:13:26.449Z,10.85
2023-04-18T12:16:02.629Z,12.10
2023-04-18T12:18:36.126Z,11.32
2023-04-18T12:21:11.013Z,11.25
2023-04-18T12:23:46.004Z,12.18
2023-04-18T12:26:19.521Z,10.75
2023-04-18T12:28:53.763Z,12.27
2023-04-18T12:31:28.895Z,11.02
2023-04-18T12:34:02.214Z,10.35
2023-04-18T12:36:37.160Z,9.82
2023-04-18T12:39:10.616Z,11.80
2023-04-18T12:41:44.929Z,10.85
2023-04-18T12:44:18.189Z,10.50
2023-04-18T12:46:51.900Z,10.68
2023-04-18T12:51:59.542Z,9.70
2023-04-18T12:54:32.771Z,9.98
2023-04-18T12:57:05.970Z,9.68
2023-04-18T12:59:39.155Z,9.45
2023-04-18T13:02:12.763Z,10.60
2023-04-18T13:07:20.688Z,9.15
2023-04-18T13:09:53.947Z,10.30
2023-04-18T13:12:29.346Z,9.93
2023-04-18T13:15:03.138Z,9.68
2023-04-18T13:20:12.613Z,9.32
2023-04-18T13:22:47.338Z,10.07
2023-04-18T13:25:20.658Z,8.55
2023-04-18T13:27:53.956Z,9.85
2023-04-18T13:30:27.767Z,8.95
2023-04-18T13:35:34.106Z,9.85
2023-04-18T13:38:08.625Z,9.48
2023-04-18T13:40:41.877Z,8.70
2023-04-18T13:43:16.005Z,9.65
2023-04-18T13:45:49.795Z,10.73
2023-04-18T13:48:23.133Z,8.95
2023-04-18T13:50:56.682Z,9.30
2023-04-18T13:56:05.044Z,8.20
2023-04-18T13:58:38.299Z,8.48
2023-04-18T14:01:12.010Z,8.88
2023-04-18T14:06:20.470Z,9.30
2023-04-18T14:08:55.162Z,9.13
2023-04-18T14:11:28.429Z,9.60
2023-04-18T14:14:02.001Z,9.18
2023-04-18T14:16:35.719Z,8.05
2023-04-18T14:21:42.412Z,100.68
2023-04-18T14:24:20.592Z,172.93
2023-04-18T14:26:53.942Z,247.20
2023-04-18T14:29:27.211Z,306.15
2023-04-18T14:32:01.699Z,335.48
2023-04-18T14:34:36.621Z,366.58
2023-04-18T14:37:11.060Z,336.08
2023-04-18T14:39:46.142Z,290.98
2023-04-18T14:42:19.456Z,278.85
2023-04-18T14:44:52.876Z,262.30
2023-04-18T14:47:31.267Z,235.43
2023-04-18T14:50:04.919Z,217.48
2023-04-18T14:52:38.345Z,194.75
2023-04-18T14:55:13.086Z,188.25
2023-04-18T14:57:47.044Z,174.10
2023-04-18T15:00:21.369Z,155.82
2023-04-18T15:02:54.865Z,133.05
2023-04-18T15:05:28.243Z,119.18
2023-04-18T15:08:01.575Z,121.97
2023-04-18T15:10:36.933Z,118.15
2023-04-18T15:13:10.318Z,116.80
2023-04-18T15:15:43.502Z,101.53
2023-04-18T15:18:16.702Z,105.18
2023-04-18T15:20:50.025Z,99.45
2023-04-18T15:23:23.417Z,95.82
2023-04-18T15:25:59.127Z,89.57
2023-04-18T15:28:32.584Z,89.72
2023-04-18T15:31:07.642Z,84.22
2023-04-18T15:33:40.917Z,80.65
2023-04-18T15:36:14.155Z,76.07
2023-04-18T15:38:47.474Z,73.80
2023-04-18T15:41:22.208Z,74.97
2023-04-18T15:43:55.365Z,70.78
2023-04-18T15:46:28.700Z,66.88
2023-04-18T15:49:01.991Z,63.38
2023-04-18T15:51:35.225Z,68.07
2023-04-18T15:54:08.599Z,62.72
2023-04-18T15:56:44.687Z,60.55
2023-04-18T15:59:17.886Z,57.53
2023-04-18T16:01:51.581Z,53.67
2023-04-18T16:04:25.140Z,53.65
2023-04-18T16:06:58.715Z,51.17
2023-04-18T16:09:32.499Z,53.00
2023-04-18T16:14:41.727Z,48.70
2023-04-18T16:17:15.144Z,48.50
2023-04-18T16:19:48.767Z,44.67
2023-04-18T16:24:55.120Z,45.20
2023-04-18T16:27:29.816Z,44.17
2023-04-18T16:30:04.129Z,42.78
2023-04-18T16:32:39.116Z,43.25
2023-04-18T16:35:12.995Z,43.83
2023-04-18T16:40:19.267Z,47.20
2023-04-18T16:42:53.841Z,46.80
2023-04-18T16:45:27.035Z,43.20
2023-04-18T16:48:00.452Z,44.25
2023-04-18T16:50:33.796Z,40.70
2023-04-18T16:53:07.264Z,41.85
2023-04-18T16:55:41.934Z,41.50
2023-04-18T16:58:16.588Z,40.03
2023-04-18T17:00:49.874Z,38.70
2023-04-18T17:03:23.307Z,38.10
2023-04-18T17:05:56.769Z,42.15
2023-04-18T17:08:31.976Z,39.58
2023-04-18T17:11:05.347Z,41.65
2023-04-18T17:13:39.979Z,39.90
2023-04-18T17:16:13.402Z,41.20
2023-04-18T17:18:46.631Z,38.92
2023-04-18T17:21:20.323Z,38.47
2023-04-18T17:26:27.759Z,37.05
2023-04-18T17:29:04.346Z,38.38
2023-04-18T17:31:37.838Z,36.40
2023-04-18T17:34:11.104Z,35.08
2023-04-18T17:36:44.357Z,32.45
2023-04-18T17:39:17.635Z,35.78
2023-04-18T17:41:51.471Z,35.25
2023-04-18T17:49:34.940Z,31.40
2023-04-18T17:52:08.374Z,30.45
2023-04-18T17:54:41.789Z,31.80
2023-04-18T17:57:14.974Z,30.30
2023-04-18T17:59:50.095Z,29.02
2023-04-18T18:02:23.458Z,29.08
2023-04-18T18:07:34.688Z,24.50
2023-04-18T18:10:10.013Z,26.05
2023-04-18T18:12:43.594Z,24.55
2023-04-18T18:15:18.847Z,24.42
2023-04-18T18:17:52.115Z,24.58
2023-04-18T18:20:25.705Z,24.00
2023-04-18T18:22:59.681Z,21.88
2023-04-18T18:25:33.190Z,23.02
2023-04-18T18:28:07.390Z,24.10
2023-04-18T18:30:42.325Z,22.17
2023-04-18T18:33:15.783Z,20.65
2023-04-18T18:35:48.998Z,20.60
2023-04-18T18:38:22.275Z,19.90
2023-04-18T18:40:55.456Z,20.10
2023-04-18T18:43:28.682Z,19.70
2023-04-18T18:46:03.252Z,20.60
2023-04-18T18:48:39.089Z,19.08
2023-04-18T18:51:12.728Z,19.27
2023-04-18T18:53:46.403Z,18.80
2023-04-18T18:56:19.923Z,17.67
2023-04-18T19:01:30.277Z,19.48
2023-04-18T19:04:03.748Z,16.92
2023-04-18T19:06:37.058Z,17.05
2023-04-18T19:09:10.284Z,16.80
2023-04-18T19:11:43.597Z,16.73
2023-04-18T19:14:16.773Z,14.63
2023-04-18T19:16:51.399Z,16.33
2023-04-18T19:19:24.748Z,16.15
2023-04-18T19:21:58.049Z,15.32
2023-04-18T19:24:34.962Z,17.50
2023-04-18T19:27:09.483Z,15.27
2023-04-18T19:29:42.714Z,15.70
2023-04-18T19:32:17.258Z,15.48
2023-04-18T19:34:51.333Z,15.20
2023-04-18T19:37:24.512Z,14.63
2023-04-18T19:39:57.768Z,14.32
2023-04-18T19:42:30.958Z,13.88
2023-04-18T19:45:04.528Z,13.35
2023-04-18T19:47:39.144Z,14.27
2023-04-18T19:50:12.628Z,12.55
2023-04-18T19:52:45.804Z,13.63
2023-04-18T19:55:19.052Z,12.85
2023-04-18T19:57:56.536Z,12.20
2023-04-18T20:00:29.948Z,12.18
2023-04-18T20:03:05.010Z,13.18
2023-04-18T20:05:38.749Z,13.02
2023-04-18T20:08:11.989Z,13.13
2023-04-18T20:10:45.216Z,12.15
2023-04-18T20:13:18.374Z,12.30
2023-04-18T20:15:52.868Z,11.68
2023-04-18T20:18:27.748Z,13.20
2023-04-18T20:21:01.640Z,11.10
2023-04-18T20:23:35.247Z,12.65
2023-04-18T20:26:09.073Z,13.10
2023-04-18T20:28:42.259Z,11.35
2023-04-18T20:31:15.613Z,11.55
2023-04-18T20:33:50.345Z,11.07
2023-04-18T20:36:24.277Z,11.52
2023-04-18T20:38:57.413Z,11.68
2023-04-18T20:41:32.424Z,11.45
2023-04-18T20:44:06.755Z,10.52
2023-04-18T20:46:40.131Z,10.52
2023-04-18T20:49:15.260Z,10.18
2023-04-18T20:51:48.690Z,10.50
2023-04-18T20:54:21.950Z,9.52
2023-04-18T20:56:55.134Z,10.85
2023-04-18T20:59:28.542Z,9.45
2023-04-18T21:02:02.077Z,9.20
2023-04-18T21:07:10.405Z,9.32
2023-04-18T21:09:43.628Z,9.43
2023-04-18T21:12:16.908Z,10.07
2023-04-18T21:14:50.364Z,9.35
2023-04-18T21:17:25.506Z,8.25
2023-04-18T21:20:00.198Z,8.45
2023-04-18T21:22:33.324Z,9.27
2023-04-18T21:25:07.513Z,8.70
2023-04-18T21:27:40.741Z,8.02
2023-04-18T21:30:14.691Z,9.05
2023-04-18T21:32:49.265Z,7.90
2023-04-18T21:35:24.931Z,8.18
2023-04-18T21:37:59.413Z,7.90
2023-04-18T21:40:33.374Z,8.60
2023-04-18T21:43:06.742Z,8.40
2023-04-18T21:45:40.067Z,8.35
2023-04-18T21:48:13.555Z,7.90
2023-04-18T21:50:54.383Z,8.52
2023-04-18T21:53:27.568Z,8.55
2023-04-18T21:56:00.918Z,8.15
2023-04-18T21:58:34.547Z,7.95
2023-04-18T22:03:41.381Z,7.47
2023-04-18T22:06:16.876Z,7.97
2023-04-18T22:08:51.642Z,7.78
2023-04-18T22:11:24.917Z,7.40
2023-04-18T22:13:58.282Z,7.80
2023-04-18T22:16:33.389Z,6.95
2023-04-18T22:19:09.088Z,7.47
2023-04-18T22:21:43.633Z,7.53
2023-04-18T22:24:18.272Z,7.93
2023-04-18T22:26:51.653Z,6.68
2023-04-18T22:29:24.854Z,8.27
2023-04-18T22:31:57.999Z,8.38
2023-04-18T22:34:31.300Z,7.80
2023-04-18T22:37:07.273Z,8.63
2023-04-18T22:39:40.498Z,7.60
2023-04-18T22:42:13.619Z,7.75
2023-04-18T22:44:46.855Z,6.95
2023-04-18T22:47:20.012Z,6.82
2023-04-18T22:49:53.218Z,6.72
2023-04-18T22:52:27.766Z,7.00
2023-04-18T22:55:02.282Z,6.82
2023-04-18T22:57:35.482Z,7.35
2023-04-18T23:00:11.127Z,6.38
2023-04-18T23:02:45.787Z,6.40
2023-04-18T23:05:19.285Z,7.10
2023-04-18T23:07:53.840Z,7.05
2023-04-18T23:10:27.060Z,6.18
2023-04-18T23:13:00.493Z,6.22
2023-04-18T23:15:33.735Z,6.28
2023-04-18T23:18:07.107Z,5.68
2023-04-18T23:20:40.523Z,6.55
2023-04-18T23:23:15.050Z,6.05
2023-04-18T23:25:48.312Z,5.85
2023-04-18T23:28:21.494Z,6.13
2023-04-18T23:30:54.728Z,6.65
2023-04-18T23:33:27.881Z,5.82
2023-04-18T23:36:01.116Z,6.03
2023-04-18T23:38:37.224Z,5.13
2023-04-18T23:41:10.413Z,5.90
2023-04-18T23:43:43.538Z,5.35
2023-04-18T23:46:16.697Z,6.50
2023-04-18T23:48:50.217Z,6.85
2023-04-18T23:51:23.398Z,6.22
2023-04-18T23:53:57.888Z,6.43
2023-04-18T23:56:31.043Z,6.15
2023-04-18T23:59:04.215Z,5.13
